Fernwood, New York
Current Conditions -  °F | °C
As of 5:54 PM on Friday 28 Nov 2014 (Local Time) from KFZY Reporting Station
Light Snow Light Snow  
Wind Chill: 16°   Ceiling: 3600
Heat Index: 25°   Visibility: 8mi
Dew Point: 16°   Wind: 9mph
Humidity: 69%   Direction: 230°SW
Pressure: 30.21"   Gusts: NA
Location:  43.5166°N, 76.1253°W
Report Text: KFZY 282254Z AUTO 23008KT 8SM -SN FEW023 SCT028 OVC036 M04/M09 A3021 RMK AO2 UPE2158SNB2158 SLP236 P0000 T10391089
Loading
Personal Weather Stations






























Interactive Weather Map New forecast layout! Learn more

10-Day Weather Forecast

Advertisements
Track Severe Weather on mobile